sensor_id;sensor_type;location;lat;lon;timestamp;P1;durP1;ratioP1;P2;durP2;ratioP2
27071;SDS011;14613;46.308;25.288;2022-07-10T00:03:16;5.60;;;4.03;;
27071;SDS011;14613;46.308;25.288;2022-07-10T00:05:42;4.35;;;3.95;;
27071;SDS011;14613;46.308;25.288;2022-07-10T00:08:07;7.60;;;3.83;;
27071;SDS011;14613;46.308;25.288;2022-07-10T00:10:33;5.38;;;3.83;;
27071;SDS011;14613;46.308;25.288;2022-07-10T00:12:59;7.22;;;3.53;;
27071;SDS011;14613;46.308;25.288;2022-07-10T00:25:26;4.28;;;3.20;;
27071;SDS011;14613;46.308;25.288;2022-07-10T00:27:51;7.30;;;3.42;;
27071;SDS011;14613;46.308;25.288;2022-07-10T00:30:17;7.10;;;2.80;;
27071;SDS011;14613;46.308;25.288;2022-07-10T00:32:43;3.22;;;2.92;;
27071;SDS011;14613;46.308;25.288;2022-07-10T00:35:09;5.22;;;3.38;;
27071;SDS011;14613;46.308;25.288;2022-07-10T00:37:34;3.60;;;3.30;;
27071;SDS011;14613;46.308;25.288;2022-07-10T00:40:01;4.07;;;3.70;;
27071;SDS011;14613;46.308;25.288;2022-07-10T00:42:29;5.18;;;3.65;;
27071;SDS011;14613;46.308;25.288;2022-07-10T00:44:56;6.30;;;3.83;;
27071;SDS011;14613;46.308;25.288;2022-07-10T00:47:21;4.40;;;3.60;;
27071;SDS011;14613;46.308;25.288;2022-07-10T00:49:47;4.40;;;3.25;;
27071;SDS011;14613;46.308;25.288;2022-07-10T00:52:14;6.40;;;3.88;;
27071;SDS011;14613;46.308;25.288;2022-07-10T00:54:42;3.55;;;3.25;;
27071;SDS011;14613;46.308;25.288;2022-07-10T00:57:09;3.60;;;3.30;;
27071;SDS011;14613;46.308;25.288;2022-07-10T00:59:36;5.20;;;3.40;;
27071;SDS011;14613;46.308;25.288;2022-07-10T01:02:03;3.83;;;3.03;;
27071;SDS011;14613;46.308;25.288;2022-07-10T01:04:30;3.65;;;3.30;;
27071;SDS011;14613;46.308;25.288;2022-07-10T01:06:57;3.85;;;3.53;;
27071;SDS011;14613;46.308;25.288;2022-07-10T01:09:23;3.65;;;3.30;;
27071;SDS011;14613;46.308;25.288;2022-07-10T01:11:49;3.13;;;2.80;;
27071;SDS011;14613;46.308;25.288;2022-07-10T01:14:15;4.88;;;3.88;;
27071;SDS011;14613;46.308;25.288;2022-07-10T01:16:41;4.68;;;3.55;;
27071;SDS011;14613;46.308;25.288;2022-07-10T01:19:07;4.70;;;4.28;;
27071;SDS011;14613;46.308;25.288;2022-07-10T01:21:34;10.02;;;3.67;;
27071;SDS011;14613;46.308;25.288;2022-07-10T01:24:05;4.28;;;3.88;;
27071;SDS011;14613;46.308;25.288;2022-07-10T01:29:34;5.93;;;3.53;;
27071;SDS011;14613;46.308;25.288;2022-07-10T01:32:01;4.22;;;3.60;;
27071;SDS011;14613;46.308;25.288;2022-07-10T01:34:27;8.13;;;3.73;;
27071;SDS011;14613;46.308;25.288;2022-07-10T01:36:53;7.20;;;4.00;;
27071;SDS011;14613;46.308;25.288;2022-07-10T01:39:19;7.30;;;4.32;;
27071;SDS011;14613;46.308;25.288;2022-07-10T01:41:45;4.13;;;3.58;;
27071;SDS011;14613;46.308;25.288;2022-07-10T01:44:11;3.90;;;3.50;;
27071;SDS011;14613;46.308;25.288;2022-07-10T01:46:44;4.53;;;3.90;;
27071;SDS011;14613;46.308;25.288;2022-07-10T01:49:14;10.13;;;3.70;;
27071;SDS011;14613;46.308;25.288;2022-07-10T01:51:49;4.85;;;3.90;;
27071;SDS011;14613;46.308;25.288;2022-07-10T01:54:15;5.47;;;4.27;;
27071;SDS011;14613;46.308;25.288;2022-07-10T01:56:40;3.93;;;3.23;;
27071;SDS011;14613;46.308;25.288;2022-07-10T01:59:06;7.10;;;3.63;;
27071;SDS011;14613;46.308;25.288;2022-07-10T02:05:05;5.17;;;3.90;;
27071;SDS011;14613;46.308;25.288;2022-07-10T02:07:31;3.90;;;3.50;;
27071;SDS011;14613;46.308;25.288;2022-07-10T02:13:31;4.63;;;3.77;;
27071;SDS011;14613;46.308;25.288;2022-07-10T02:22:16;6.57;;;3.83;;
27071;SDS011;14613;46.308;25.288;2022-07-10T02:30:31;7.43;;;3.70;;
27071;SDS011;14613;46.308;25.288;2022-07-10T02:32:56;5.97;;;4.20;;
27071;SDS011;14613;46.308;25.288;2022-07-10T02:35:23;5.40;;;4.47;;
27071;SDS011;14613;46.308;25.288;2022-07-10T02:37:48;4.83;;;4.27;;
27071;SDS011;14613;46.308;25.288;2022-07-10T02:43:35;7.33;;;5.30;;
27071;SDS011;14613;46.308;25.288;2022-07-10T02:46:01;4.57;;;4.00;;
27071;SDS011;14613;46.308;25.288;2022-07-10T02:48:27;14.03;;;4.30;;
27071;SDS011;14613;46.308;25.288;2022-07-10T02:50:53;4.67;;;4.20;;
27071;SDS011;14613;46.308;25.288;2022-07-10T02:53:18;6.00;;;4.60;;
27071;SDS011;14613;46.308;25.288;2022-07-10T02:55:44;4.57;;;4.17;;
27071;SDS011;14613;46.308;25.288;2022-07-10T02:58:10;3.83;;;3.50;;
27071;SDS011;14613;46.308;25.288;2022-07-10T03:00:36;5.67;;;3.90;;
27071;SDS011;14613;46.308;25.288;2022-07-10T03:03:02;4.50;;;3.60;;
27071;SDS011;14613;46.308;25.288;2022-07-10T03:08:59;8.00;;;4.27;;
27071;SDS011;14613;46.308;25.288;2022-07-10T03:11:25;4.67;;;3.97;;
27071;SDS011;14613;46.308;25.288;2022-07-10T03:13:51;11.13;;;4.33;;
27071;SDS011;14613;46.308;25.288;2022-07-10T03:16:16;5.00;;;4.27;;
27071;SDS011;14613;46.308;25.288;2022-07-10T03:18:42;5.87;;;4.13;;
27071;SDS011;14613;46.308;25.288;2022-07-10T03:21:08;5.40;;;4.33;;
27071;SDS011;14613;46.308;25.288;2022-07-10T03:23:33;10.13;;;4.90;;
27071;SDS011;14613;46.308;25.288;2022-07-10T03:25:59;5.70;;;4.97;;
27071;SDS011;14613;46.308;25.288;2022-07-10T03:28:25;5.13;;;4.10;;
27071;SDS011;14613;46.308;25.288;2022-07-10T03:30:51;5.22;;;4.45;;
27071;SDS011;14613;46.308;25.288;2022-07-10T03:33:16;8.07;;;4.90;;
27071;SDS011;14613;46.308;25.288;2022-07-10T03:35:42;6.50;;;4.77;;
27071;SDS011;14613;46.308;25.288;2022-07-10T03:38:08;4.13;;;3.73;;
27071;SDS011;14613;46.308;25.288;2022-07-10T03:50:58;5.13;;;4.63;;
27071;SDS011;14613;46.308;25.288;2022-07-10T03:53:25;6.90;;;4.10;;
27071;SDS011;14613;46.308;25.288;2022-07-10T03:55:51;4.97;;;4.47;;
27071;SDS011;14613;46.308;25.288;2022-07-10T03:58:16;6.30;;;4.40;;
27071;SDS011;14613;46.308;25.288;2022-07-10T04:00:42;7.30;;;4.37;;
27071;SDS011;14613;46.308;25.288;2022-07-10T04:06:30;8.47;;;5.60;;
27071;SDS011;14613;46.308;25.288;2022-07-10T04:08:56;6.90;;;4.50;;
27071;SDS011;14613;46.308;25.288;2022-07-10T04:11:21;9.60;;;5.63;;
27071;SDS011;14613;46.308;25.288;2022-07-10T04:13:47;8.87;;;5.47;;
27071;SDS011;14613;46.308;25.288;2022-07-10T04:16:13;6.70;;;5.43;;
27071;SDS011;14613;46.308;25.288;2022-07-10T04:18:39;5.47;;;4.95;;
27071;SDS011;14613;46.308;25.288;2022-07-10T04:21:05;7.57;;;4.72;;
27071;SDS011;14613;46.308;25.288;2022-07-10T04:23:34;6.43;;;3.85;;
27071;SDS011;14613;46.308;25.288;2022-07-10T04:26:00;5.13;;;3.75;;
27071;SDS011;14613;46.308;25.288;2022-07-10T04:28:26;5.07;;;3.90;;
27071;SDS011;14613;46.308;25.288;2022-07-10T04:30:52;7.18;;;4.05;;
27071;SDS011;14613;46.308;25.288;2022-07-10T04:33:18;4.68;;;3.90;;
27071;SDS011;14613;46.308;25.288;2022-07-10T04:35:44;8.43;;;4.10;;
27071;SDS011;14613;46.308;25.288;2022-07-10T04:38:09;9.70;;;4.45;;
27071;SDS011;14613;46.308;25.288;2022-07-10T04:40:35;3.28;;;2.97;;
27071;SDS011;14613;46.308;25.288;2022-07-10T04:43:01;4.10;;;2.95;;
27071;SDS011;14613;46.308;25.288;2022-07-10T04:45:27;3.25;;;2.95;;
27071;SDS011;14613;46.308;25.288;2022-07-10T04:47:52;6.50;;;3.33;;
27071;SDS011;14613;46.308;25.288;2022-07-10T04:50:18;7.65;;;3.15;;
27071;SDS011;14613;46.308;25.288;2022-07-10T04:52:44;6.15;;;3.78;;
27071;SDS011;14613;46.308;25.288;2022-07-10T04:55:10;6.05;;;3.03;;
27071;SDS011;14613;46.308;25.288;2022-07-10T04:57:35;5.47;;;2.70;;
27071;SDS011;14613;46.308;25.288;2022-07-10T05:00:01;7.03;;;2.63;;
27071;SDS011;14613;46.308;25.288;2022-07-10T05:02:28;5.43;;;2.90;;
27071;SDS011;14613;46.308;25.288;2022-07-10T05:04:54;10.07;;;8.30;;
27071;SDS011;14613;46.308;25.288;2022-07-10T05:07:19;7.90;;;3.17;;
27071;SDS011;14613;46.308;25.288;2022-07-10T05:09:45;2.92;;;2.70;;
27071;SDS011;14613;46.308;25.288;2022-07-10T05:12:11;3.28;;;2.58;;
27071;SDS011;14613;46.308;25.288;2022-07-10T05:14:36;5.47;;;2.83;;
27071;SDS011;14613;46.308;25.288;2022-07-10T05:17:02;3.20;;;2.90;;
27071;SDS011;14613;46.308;25.288;2022-07-10T05:19:28;3.80;;;3.25;;
27071;SDS011;14613;46.308;25.288;2022-07-10T05:21:54;3.88;;;3.20;;
27071;SDS011;14613;46.308;25.288;2022-07-10T05:24:20;4.40;;;3.20;;
27071;SDS011;14613;46.308;25.288;2022-07-10T05:26:46;6.97;;;3.00;;
27071;SDS011;14613;46.308;25.288;2022-07-10T05:29:12;4.03;;;2.97;;
27071;SDS011;14613;46.308;25.288;2022-07-10T05:31:38;4.57;;;2.70;;
27071;SDS011;14613;46.308;25.288;2022-07-10T05:34:03;4.25;;;3.05;;
27071;SDS011;14613;46.308;25.288;2022-07-10T05:36:29;4.88;;;3.35;;
27071;SDS011;14613;46.308;25.288;2022-07-10T05:38:55;2.72;;;2.50;;
27071;SDS011;14613;46.308;25.288;2022-07-10T05:41:20;3.17;;;2.88;;
27071;SDS011;14613;46.308;25.288;2022-07-10T05:43:46;5.25;;;2.85;;
27071;SDS011;14613;46.308;25.288;2022-07-10T05:46:12;5.72;;;2.95;;
27071;SDS011;14613;46.308;25.288;2022-07-10T05:48:38;3.55;;;3.25;;
27071;SDS011;14613;46.308;25.288;2022-07-10T05:51:04;3.10;;;2.90;;
27071;SDS011;14613;46.308;25.288;2022-07-10T05:53:29;4.90;;;3.00;;
27071;SDS011;14613;46.308;25.288;2022-07-10T05:55:59;3.40;;;3.05;;
27071;SDS011;14613;46.308;25.288;2022-07-10T05:58:26;3.65;;;3.33;;
27071;SDS011;14613;46.308;25.288;2022-07-10T06:00:51;3.28;;;2.97;;
27071;SDS011;14613;46.308;25.288;2022-07-10T06:03:17;3.80;;;2.90;;
27071;SDS011;14613;46.308;25.288;2022-07-10T06:05:43;9.73;;;3.35;;
27071;SDS011;14613;46.308;25.288;2022-07-10T06:08:10;4.68;;;3.17;;
27071;SDS011;14613;46.308;25.288;2022-07-10T06:10:37;3.80;;;3.50;;
27071;SDS011;14613;46.308;25.288;2022-07-10T06:13:04;4.97;;;2.63;;
27071;SDS011;14613;46.308;25.288;2022-07-10T06:15:30;3.92;;;2.67;;
27071;SDS011;14613;46.308;25.288;2022-07-10T06:17:56;3.97;;;3.53;;
27071;SDS011;14613;46.308;25.288;2022-07-10T06:20:23;4.18;;;3.20;;
27071;SDS011;14613;46.308;25.288;2022-07-10T06:22:51;9.43;;;5.53;;
27071;SDS011;14613;46.308;25.288;2022-07-10T06:25:17;3.22;;;2.70;;
27071;SDS011;14613;46.308;25.288;2022-07-10T06:27:43;3.22;;;2.67;;
27071;SDS011;14613;46.308;25.288;2022-07-10T06:30:09;4.43;;;2.92;;
27071;SDS011;14613;46.308;25.288;2022-07-10T06:32:35;5.07;;;2.90;;
27071;SDS011;14613;46.308;25.288;2022-07-10T06:35:01;6.68;;;2.50;;
27071;SDS011;14613;46.308;25.288;2022-07-10T06:37:28;2.58;;;2.38;;
27071;SDS011;14613;46.308;25.288;2022-07-10T06:39:55;4.65;;;2.50;;
27071;SDS011;14613;46.308;25.288;2022-07-10T06:42:21;3.97;;;2.40;;
27071;SDS011;14613;46.308;25.288;2022-07-10T06:44:47;2.40;;;2.20;;
27071;SDS011;14613;46.308;25.288;2022-07-10T06:47:14;2.35;;;2.15;;
27071;SDS011;14613;46.308;25.288;2022-07-10T06:50:00;12.20;;;2.20;;
27071;SDS011;14613;46.308;25.288;2022-07-10T06:52:27;2.55;;;2.35;;
27071;SDS011;14613;46.308;25.288;2022-07-10T06:54:53;7.60;;;2.33;;
27071;SDS011;14613;46.308;25.288;2022-07-10T06:57:19;2.75;;;2.25;;
27071;SDS011;14613;46.308;25.288;2022-07-10T06:59:45;2.88;;;2.25;;
27071;SDS011;14613;46.308;25.288;2022-07-10T07:02:11;4.53;;;2.05;;
27071;SDS011;14613;46.308;25.288;2022-07-10T07:04:37;3.20;;;2.05;;
27071;SDS011;14613;46.308;25.288;2022-07-10T07:07:03;6.47;;;2.10;;
27071;SDS011;14613;46.308;25.288;2022-07-10T07:09:29;5.70;;;1.50;;
27071;SDS011;14613;46.308;25.288;2022-07-10T07:11:55;5.13;;;1.70;;
27071;SDS011;14613;46.308;25.288;2022-07-10T07:14:20;2.83;;;1.48;;
27071;SDS011;14613;46.308;25.288;2022-07-10T07:16:46;1.67;;;1.50;;
27071;SDS011;14613;46.308;25.288;2022-07-10T07:19:22;2.95;;;1.73;;
27071;SDS011;14613;46.308;25.288;2022-07-10T07:21:56;3.83;;;1.50;;
27071;SDS011;14613;46.308;25.288;2022-07-10T07:24:44;1.90;;;1.70;;
27071;SDS011;14613;46.308;25.288;2022-07-10T07:27:10;8.02;;;1.90;;
27071;SDS011;14613;46.308;25.288;2022-07-10T07:29:37;1.75;;;1.65;;
27071;SDS011;14613;46.308;25.288;2022-07-10T07:32:03;1.58;;;1.48;;
27071;SDS011;14613;46.308;25.288;2022-07-10T07:34:29;1.88;;;1.73;;
27071;SDS011;14613;46.308;25.288;2022-07-10T07:36:56;1.98;;;1.83;;
27071;SDS011;14613;46.308;25.288;2022-07-10T07:39:22;1.75;;;1.65;;
27071;SDS011;14613;46.308;25.288;2022-07-10T07:41:49;2.30;;;2.00;;
27071;SDS011;14613;46.308;25.288;2022-07-10T07:44:14;2.83;;;1.98;;
27071;SDS011;14613;46.308;25.288;2022-07-10T07:46:42;3.67;;;1.95;;
27071;SDS011;14613;46.308;25.288;2022-07-10T07:49:08;1.92;;;1.83;;
27071;SDS011;14613;46.308;25.288;2022-07-10T07:51:35;4.47;;;2.15;;
27071;SDS011;14613;46.308;25.288;2022-07-10T07:54:01;8.23;;;1.70;;
27071;SDS011;14613;46.308;25.288;2022-07-10T07:56:26;1.90;;;1.65;;
27071;SDS011;14613;46.308;25.288;2022-07-10T07:58:52;2.40;;;1.58;;
27071;SDS011;14613;46.308;25.288;2022-07-10T08:01:18;1.50;;;1.42;;
27071;SDS011;14613;46.308;25.288;2022-07-10T08:03:44;6.90;;;1.80;;
27071;SDS011;14613;46.308;25.288;2022-07-10T08:06:10;2.00;;;1.52;;
27071;SDS011;14613;46.308;25.288;2022-07-10T08:08:36;4.03;;;1.70;;
27071;SDS011;14613;46.308;25.288;2022-07-10T08:11:02;7.38;;;1.60;;
27071;SDS011;14613;46.308;25.288;2022-07-10T08:13:28;1.98;;;1.45;;
27071;SDS011;14613;46.308;25.288;2022-07-10T08:15:54;3.85;;;1.30;;
27071;SDS011;14613;46.308;25.288;2022-07-10T08:18:20;3.92;;;1.60;;
27071;SDS011;14613;46.308;25.288;2022-07-10T08:20:46;2.30;;;1.48;;
27071;SDS011;14613;46.308;25.288;2022-07-10T08:23:12;6.18;;;1.42;;
27071;SDS011;14613;46.308;25.288;2022-07-10T08:25:37;1.98;;;1.40;;
27071;SDS011;14613;46.308;25.288;2022-07-10T08:28:03;2.47;;;1.63;;
27071;SDS011;14613;46.308;25.288;2022-07-10T08:30:35;1.73;;;1.40;;
27071;SDS011;14613;46.308;25.288;2022-07-10T08:33:00;2.47;;;1.70;;
27071;SDS011;14613;46.308;25.288;2022-07-10T08:35:26;3.25;;;1.20;;
27071;SDS011;14613;46.308;25.288;2022-07-10T08:37:52;2.03;;;1.45;;
27071;SDS011;14613;46.308;25.288;2022-07-10T08:40:19;2.58;;;1.60;;
27071;SDS011;14613;46.308;25.288;2022-07-10T08:42:46;2.35;;;1.40;;
27071;SDS011;14613;46.308;25.288;2022-07-10T08:45:13;1.73;;;1.50;;
27071;SDS011;14613;46.308;25.288;2022-07-10T08:47:39;2.00;;;1.85;;
27071;SDS011;14613;46.308;25.288;2022-07-10T08:50:17;5.20;;;1.90;;
27071;SDS011;14613;46.308;25.288;2022-07-10T08:52:48;2.22;;;2.03;;
27071;SDS011;14613;46.308;25.288;2022-07-10T08:55:37;4.72;;;1.70;;
27071;SDS011;14613;46.308;25.288;2022-07-10T08:58:03;4.25;;;1.40;;
27071;SDS011;14613;46.308;25.288;2022-07-10T09:00:29;1.90;;;1.40;;
27071;SDS011;14613;46.308;25.288;2022-07-10T09:02:56;3.50;;;1.45;;
27071;SDS011;14613;46.308;25.288;2022-07-10T09:05:25;3.50;;;1.65;;
27071;SDS011;14613;46.308;25.288;2022-07-10T09:07:51;4.88;;;2.10;;
27071;SDS011;14613;46.308;25.288;2022-07-10T09:10:19;1.92;;;1.63;;
27071;SDS011;14613;46.308;25.288;2022-07-10T09:15:17;3.50;;;1.88;;
27071;SDS011;14613;46.308;25.288;2022-07-10T09:17:54;2.55;;;1.67;;
27071;SDS011;14613;46.308;25.288;2022-07-10T09:20:54;13.95;;;1.60;;
27071;SDS011;14613;46.308;25.288;2022-07-10T09:23:15;4.13;;;1.95;;
27071;SDS011;14613;46.308;25.288;2022-07-10T09:25:42;2.85;;;1.85;;
27071;SDS011;14613;46.308;25.288;2022-07-10T09:28:09;8.50;;;1.77;;
27071;SDS011;14613;46.308;25.288;2022-07-10T09:30:38;2.88;;;1.73;;
27071;SDS011;14613;46.308;25.288;2022-07-10T09:35:55;2.25;;;1.70;;
27071;SDS011;14613;46.308;25.288;2022-07-10T09:38:52;2.92;;;1.67;;
27071;SDS011;14613;46.308;25.288;2022-07-10T09:46:25;2.47;;;1.73;;
27071;SDS011;14613;46.308;25.288;2022-07-10T09:49:09;4.38;;;2.25;;
27071;SDS011;14613;46.308;25.288;2022-07-10T09:51:39;3.10;;;1.30;;
27071;SDS011;14613;46.308;25.288;2022-07-10T09:54:07;1.77;;;1.30;;
27071;SDS011;14613;46.308;25.288;2022-07-10T09:59:16;5.75;;;1.40;;
27071;SDS011;14613;46.308;25.288;2022-07-10T10:04:11;3.55;;;1.75;;
27071;SDS011;14613;46.308;25.288;2022-07-10T10:06:41;3.40;;;1.83;;
27071;SDS011;14613;46.308;25.288;2022-07-10T10:09:28;3.72;;;2.00;;
27071;SDS011;14613;46.308;25.288;2022-07-10T10:12:01;3.88;;;1.88;;
27071;SDS011;14613;46.308;25.288;2022-07-10T10:14:30;3.70;;;2.38;;
27071;SDS011;14613;46.308;25.288;2022-07-10T10:16:58;4.07;;;1.88;;
27071;SDS011;14613;46.308;25.288;2022-07-10T10:19:25;4.55;;;1.48;;
27071;SDS011;14613;46.308;25.288;2022-07-10T10:22:11;2.33;;;1.50;;
27071;SDS011;14613;46.308;25.288;2022-07-10T10:24:38;7.15;;;2.25;;
27071;SDS011;14613;46.308;25.288;2022-07-10T10:27:06;9.20;;;1.50;;
27071;SDS011;14613;46.308;25.288;2022-07-10T10:29:35;2.97;;;1.67;;
27071;SDS011;14613;46.308;25.288;2022-07-10T10:32:02;4.85;;;1.70;;
27071;SDS011;14613;46.308;25.288;2022-07-10T10:34:41;4.10;;;2.08;;
27071;SDS011;14613;46.308;25.288;2022-07-10T10:37:28;8.38;;;2.13;;
27071;SDS011;14613;46.308;25.288;2022-07-10T10:39:56;5.43;;;1.70;;
27071;SDS011;14613;46.308;25.288;2022-07-10T10:42:41;4.93;;;1.60;;
27071;SDS011;14613;46.308;25.288;2022-07-10T10:48:14;8.43;;;2.08;;
27071;SDS011;14613;46.308;25.288;2022-07-10T10:50:50;2.03;;;1.77;;
27071;SDS011;14613;46.308;25.288;2022-07-10T10:53:21;2.03;;;1.67;;
27071;SDS011;14613;46.308;25.288;2022-07-10T10:58:41;2.20;;;1.50;;
27071;SDS011;14613;46.308;25.288;2022-07-10T11:09:49;3.60;;;1.17;;
27071;SDS011;14613;46.308;25.288;2022-07-10T11:12:15;3.17;;;1.30;;
27071;SDS011;14613;46.308;25.288;2022-07-10T11:14:47;3.15;;;1.55;;
27071;SDS011;14613;46.308;25.288;2022-07-10T11:20:20;1.15;;;1.02;;
27071;SDS011;14613;46.308;25.288;2022-07-10T11:22:52;2.60;;;1.60;;
27071;SDS011;14613;46.308;25.288;2022-07-10T11:28:51;3.42;;;0.93;;
27071;SDS011;14613;46.308;25.288;2022-07-10T11:31:19;5.55;;;2.03;;
27071;SDS011;14613;46.308;25.288;2022-07-10T11:33:46;1.63;;;1.10;;
27071;SDS011;14613;46.308;25.288;2022-07-10T11:36:24;1.48;;;1.10;;
27071;SDS011;14613;46.308;25.288;2022-07-10T11:41:33;2.78;;;1.40;;
27071;SDS011;14613;46.308;25.288;2022-07-10T11:44:03;2.47;;;1.40;;
27071;SDS011;14613;46.308;25.288;2022-07-10T11:46:30;1.15;;;1.00;;
27071;SDS011;14613;46.308;25.288;2022-07-10T11:48:58;1.25;;;1.15;;
27071;SDS011;14613;46.308;25.288;2022-07-10T11:53:56;1.98;;;1.50;;
27071;SDS011;14613;46.308;25.288;2022-07-10T11:56:26;0.77;;;0.77;;
27071;SDS011;14613;46.308;25.288;2022-07-10T11:58:57;1.17;;;0.80;;
27071;SDS011;14613;46.308;25.288;2022-07-10T12:01:23;2.10;;;0.70;;
27071;SDS011;14613;46.308;25.288;2022-07-10T12:03:53;4.13;;;0.85;;
27071;SDS011;14613;46.308;25.288;2022-07-10T12:06:21;4.22;;;2.00;;
27071;SDS011;14613;46.308;25.288;2022-07-10T12:08:48;1.33;;;1.23;;
27071;SDS011;14613;46.308;25.288;2022-07-10T12:11:15;3.05;;;1.75;;
27071;SDS011;14613;46.308;25.288;2022-07-10T12:13:46;1.23;;;0.90;;
27071;SDS011;14613;46.308;25.288;2022-07-10T12:16:13;1.27;;;0.77;;
27071;SDS011;14613;46.308;25.288;2022-07-10T12:18:39;2.58;;;1.08;;
27071;SDS011;14613;46.308;25.288;2022-07-10T12:21:08;2.42;;;1.80;;
27071;SDS011;14613;46.308;25.288;2022-07-10T12:23:35;1.83;;;1.10;;
27071;SDS011;14613;46.308;25.288;2022-07-10T12:26:07;1.17;;;1.02;;
27071;SDS011;14613;46.308;25.288;2022-07-10T12:28:54;3.80;;;0.80;;
27071;SDS011;14613;46.308;25.288;2022-07-10T12:31:21;1.20;;;1.00;;
27071;SDS011;14613;46.308;25.288;2022-07-10T12:33:55;1.30;;;1.20;;
27071;SDS011;14613;46.308;25.288;2022-07-10T12:36:41;1.15;;;0.95;;
27071;SDS011;14613;46.308;25.288;2022-07-10T12:39:15;2.20;;;0.88;;
27071;SDS011;14613;46.308;25.288;2022-07-10T12:42:02;3.90;;;2.10;;
27071;SDS011;14613;46.308;25.288;2022-07-10T12:44:39;1.95;;;1.00;;
27071;SDS011;14613;46.308;25.288;2022-07-10T12:47:16;3.22;;;0.80;;
27071;SDS011;14613;46.308;25.288;2022-07-10T12:50:03;1.45;;;0.93;;
27071;SDS011;14613;46.308;25.288;2022-07-10T12:52:31;5.50;;;0.88;;
27071;SDS011;14613;46.308;25.288;2022-07-10T12:57:57;6.88;;;4.43;;
27071;SDS011;14613;46.308;25.288;2022-07-10T13:00:33;2.60;;;0.88;;
27071;SDS011;14613;46.308;25.288;2022-07-10T13:03:11;1.20;;;0.95;;
27071;SDS011;14613;46.308;25.288;2022-07-10T13:05:42;4.65;;;1.27;;
27071;SDS011;14613;46.308;25.288;2022-07-10T13:08:19;1.02;;;0.90;;
27071;SDS011;14613;46.308;25.288;2022-07-10T13:10:50;1.63;;;0.90;;
27071;SDS011;14613;46.308;25.288;2022-07-10T13:13:18;8.60;;;1.02;;
27071;SDS011;14613;46.308;25.288;2022-07-10T13:15:44;9.25;;;1.63;;
27071;SDS011;14613;46.308;25.288;2022-07-10T13:18:13;0.88;;;0.88;;
27071;SDS011;14613;46.308;25.288;2022-07-10T13:20:40;2.50;;;1.00;;
27071;SDS011;14613;46.308;25.288;2022-07-10T13:23:06;1.95;;;0.82;;
27071;SDS011;14613;46.308;25.288;2022-07-10T13:25:32;0.80;;;0.80;;
27071;SDS011;14613;46.308;25.288;2022-07-10T13:27:59;0.82;;;0.70;;
27071;SDS011;14613;46.308;25.288;2022-07-10T13:30:25;1.33;;;0.60;;
27071;SDS011;14613;46.308;25.288;2022-07-10T13:32:51;1.35;;;0.68;;
27071;SDS011;14613;46.308;25.288;2022-07-10T13:35:16;1.17;;;0.70;;
27071;SDS011;14613;46.308;25.288;2022-07-10T13:37:42;0.70;;;0.70;;
27071;SDS011;14613;46.308;25.288;2022-07-10T13:40:08;0.52;;;0.52;;
27071;SDS011;14613;46.308;25.288;2022-07-10T13:42:34;2.28;;;0.90;;
27071;SDS011;14613;46.308;25.288;2022-07-10T13:45:00;2.00;;;1.63;;
27071;SDS011;14613;46.308;25.288;2022-07-10T13:47:25;0.60;;;0.60;;
27071;SDS011;14613;46.308;25.288;2022-07-10T13:49:51;0.50;;;0.50;;
27071;SDS011;14613;46.308;25.288;2022-07-10T13:52:17;1.17;;;0.85;;
27071;SDS011;14613;46.308;25.288;2022-07-10T13:54:43;0.88;;;0.82;;
27071;SDS011;14613;46.308;25.288;2022-07-10T13:57:08;3.13;;;0.90;;
27071;SDS011;14613;46.308;25.288;2022-07-10T13:59:34;2.75;;;0.80;;
27071;SDS011;14613;46.308;25.288;2022-07-10T14:02:00;1.95;;;0.98;;
27071;SDS011;14613;46.308;25.288;2022-07-10T14:04:25;1.75;;;1.00;;
27071;SDS011;14613;46.308;25.288;2022-07-10T14:06:51;0.70;;;0.70;;
27071;SDS011;14613;46.308;25.288;2022-07-10T14:09:17;1.77;;;1.20;;
27071;SDS011;14613;46.308;25.288;2022-07-10T14:11:43;2.15;;;1.40;;
27071;SDS011;14613;46.308;25.288;2022-07-10T14:14:09;0.82;;;0.80;;
27071;SDS011;14613;46.308;25.288;2022-07-10T14:16:36;0.68;;;0.60;;
27071;SDS011;14613;46.308;25.288;2022-07-10T14:19:02;0.95;;;0.90;;
27071;SDS011;14613;46.308;25.288;2022-07-10T14:21:27;1.27;;;0.88;;
27071;SDS011;14613;46.308;25.288;2022-07-10T14:23:53;1.10;;;1.00;;
27071;SDS011;14613;46.308;25.288;2022-07-10T14:26:21;3.38;;;0.70;;
27071;SDS011;14613;46.308;25.288;2022-07-10T14:28:47;1.20;;;0.80;;
27071;SDS011;14613;46.308;25.288;2022-07-10T14:31:13;3.40;;;1.92;;
27071;SDS011;14613;46.308;25.288;2022-07-10T14:33:39;4.32;;;3.20;;
27071;SDS011;14613;46.308;25.288;2022-07-10T14:36:05;2.55;;;1.27;;
27071;SDS011;14613;46.308;25.288;2022-07-10T14:38:31;1.20;;;0.85;;
27071;SDS011;14613;46.308;25.288;2022-07-10T14:40:58;2.00;;;1.77;;
27071;SDS011;14613;46.308;25.288;2022-07-10T14:43:24;1.70;;;1.60;;
27071;SDS011;14613;46.308;25.288;2022-07-10T14:45:50;1.23;;;0.80;;
27071;SDS011;14613;46.308;25.288;2022-07-10T14:48:16;0.90;;;0.90;;
27071;SDS011;14613;46.308;25.288;2022-07-10T14:50:42;2.80;;;0.77;;
27071;SDS011;14613;46.308;25.288;2022-07-10T14:53:08;10.30;;;8.55;;
27071;SDS011;14613;46.308;25.288;2022-07-10T14:55:36;0.75;;;0.70;;
27071;SDS011;14613;46.308;25.288;2022-07-10T14:58:02;3.03;;;0.60;;
27071;SDS011;14613;46.308;25.288;2022-07-10T15:00:28;2.35;;;1.88;;
27071;SDS011;14613;46.308;25.288;2022-07-10T15:02:55;0.85;;;0.70;;
27071;SDS011;14613;46.308;25.288;2022-07-10T15:05:20;1.60;;;0.70;;
27071;SDS011;14613;46.308;25.288;2022-07-10T15:07:46;1.67;;;1.10;;
27071;SDS011;14613;46.308;25.288;2022-07-10T15:10:12;0.95;;;0.68;;
27071;SDS011;14613;46.308;25.288;2022-07-10T15:12:40;0.98;;;0.80;;
27071;SDS011;14613;46.308;25.288;2022-07-10T15:15:07;1.90;;;0.60;;
27071;SDS011;14613;46.308;25.288;2022-07-10T15:17:34;1.27;;;0.90;;
27071;SDS011;14613;46.308;25.288;2022-07-10T15:20:01;0.52;;;0.52;;
27071;SDS011;14613;46.308;25.288;2022-07-10T15:22:27;1.45;;;0.80;;
27071;SDS011;14613;46.308;25.288;2022-07-10T15:24:53;1.23;;;0.70;;
27071;SDS011;14613;46.308;25.288;2022-07-10T15:27:19;1.10;;;0.70;;
27071;SDS011;14613;46.308;25.288;2022-07-10T15:29:44;0.80;;;0.80;;
27071;SDS011;14613;46.308;25.288;2022-07-10T15:32:10;0.52;;;0.50;;
27071;SDS011;14613;46.308;25.288;2022-07-10T15:34:37;1.15;;;0.57;;
27071;SDS011;14613;46.308;25.288;2022-07-10T15:37:03;4.78;;;0.90;;
27071;SDS011;14613;46.308;25.288;2022-07-10T15:39:29;0.50;;;0.43;;
27071;SDS011;14613;46.308;25.288;2022-07-10T15:42:06;0.88;;;0.70;;
27071;SDS011;14613;46.308;25.288;2022-07-10T15:44:36;2.10;;;0.50;;
27071;SDS011;14613;46.308;25.288;2022-07-10T15:47:02;2.17;;;1.13;;
27071;SDS011;14613;46.308;25.288;2022-07-10T15:49:29;2.83;;;1.60;;
27071;SDS011;14613;46.308;25.288;2022-07-10T15:51:55;2.38;;;0.88;;
27071;SDS011;14613;46.308;25.288;2022-07-10T15:54:21;1.83;;;0.80;;
27071;SDS011;14613;46.308;25.288;2022-07-10T15:56:47;1.20;;;1.10;;
27071;SDS011;14613;46.308;25.288;2022-07-10T15:59:13;3.08;;;0.75;;
27071;SDS011;14613;46.308;25.288;2022-07-10T16:01:38;0.77;;;0.70;;
27071;SDS011;14613;46.308;25.288;2022-07-10T16:04:04;0.95;;;0.50;;
27071;SDS011;14613;46.308;25.288;2022-07-10T16:06:30;4.88;;;0.82;;
27071;SDS011;14613;46.308;25.288;2022-07-10T16:08:56;0.77;;;0.70;;
27071;SDS011;14613;46.308;25.288;2022-07-10T16:11:21;1.33;;;0.80;;
27071;SDS011;14613;46.308;25.288;2022-07-10T16:13:50;1.42;;;0.85;;
27071;SDS011;14613;46.308;25.288;2022-07-10T16:16:16;2.90;;;1.00;;